createdAt,value
2022-12-14T00:00:18.991Z,62.09
2022-12-14T00:02:50.564Z,62.22
2022-12-14T00:05:22.050Z,62.13
2022-12-14T00:07:53.494Z,62.21
2022-12-14T00:10:24.931Z,62.23
2022-12-14T00:12:57.836Z,62.13
2022-12-14T00:15:29.541Z,62.17
2022-12-14T00:18:01.042Z,61.92
2022-12-14T00:20:33.836Z,62.05
2022-12-14T00:23:05.261Z,61.96
2022-12-14T00:25:36.734Z,61.99
2022-12-14T00:28:08.136Z,61.93
2022-12-14T00:30:39.537Z,61.89
2022-12-14T00:33:10.934Z,61.91
2022-12-14T00:35:42.391Z,61.97
2022-12-14T00:38:13.765Z,62.20
2022-12-14T00:40:45.223Z,61.96
2022-12-14T00:43:16.735Z,62.15
2022-12-14T00:45:48.148Z,62.03
2022-12-14T00:48:20.997Z,61.79
2022-12-14T00:50:54.336Z,61.88
2022-12-14T00:53:25.989Z,61.65
2022-12-14T00:55:57.545Z,61.31
2022-12-14T00:58:29.410Z,61.54
2022-12-14T01:01:07.024Z,61.39
2022-12-14T01:03:38.555Z,61.58
2022-12-14T01:06:22.772Z,61.88
2022-12-14T01:08:54.226Z,61.70
2022-12-14T01:11:25.629Z,61.74
2022-12-14T01:13:57.070Z,61.99
2022-12-14T01:16:28.542Z,61.77
2022-12-14T01:19:00.666Z,62.37
2022-12-14T01:21:32.527Z,62.35
2022-12-14T01:24:05.829Z,62.09
2022-12-14T01:26:39.045Z,62.04
2022-12-14T01:29:11.497Z,62.05
2022-12-14T01:31:43.242Z,62.21
2022-12-14T01:34:14.713Z,62.25
2022-12-14T01:36:46.348Z,62.08
2022-12-14T01:39:17.775Z,62.13
2022-12-14T01:41:50.774Z,61.80
2022-12-14T01:44:22.127Z,61.74
2022-12-14T01:46:58.375Z,61.64
2022-12-14T01:49:47.351Z,61.61
2022-12-14T01:52:27.892Z,61.51
2022-12-14T01:55:04.348Z,61.46
2022-12-14T01:57:59.968Z,61.43
2022-12-14T02:00:31.630Z,61.33
2022-12-14T02:03:37.427Z,61.20
2022-12-14T02:06:14.310Z,61.18
2022-12-14T02:08:48.260Z,61.22
2022-12-14T02:11:35.843Z,61.27
2022-12-14T02:14:07.237Z,60.94
2022-12-14T02:16:39.947Z,61.17
2022-12-14T02:19:11.385Z,61.47
2022-12-14T02:21:42.809Z,61.38
2022-12-14T02:24:30.881Z,61.27
2022-12-14T02:27:12.565Z,61.19
2022-12-14T02:30:04.940Z,61.17
2022-12-14T02:32:57.560Z,61.11
2022-12-14T02:36:10.532Z,61.03
2022-12-14T02:39:13.858Z,60.70
2022-12-14T02:41:57.345Z,60.74
2022-12-14T02:44:31.424Z,60.79
2022-12-14T02:47:23.589Z,60.59
2022-12-14T02:50:13.828Z,60.55
2022-12-14T02:53:04.128Z,60.38
2022-12-14T02:55:42.181Z,60.46
2022-12-14T02:58:23.684Z,60.55
2022-12-14T03:00:56.436Z,60.56
2022-12-14T03:03:28.309Z,60.59
2022-12-14T03:06:04.157Z,60.74
2022-12-14T03:08:36.335Z,60.55
2022-12-14T03:11:23.997Z,60.69
2022-12-14T03:14:04.646Z,60.77
2022-12-14T03:16:44.692Z,60.91
2022-12-14T03:19:29.900Z,60.96
2022-12-14T03:22:11.038Z,60.92
2022-12-14T03:24:50.984Z,60.97
2022-12-14T03:27:34.564Z,61.05
2022-12-14T03:30:10.641Z,60.88
2022-12-14T03:32:52.555Z,60.87
2022-12-14T03:35:29.122Z,61.06
2022-12-14T03:38:13.596Z,60.84
2022-12-14T03:41:11.377Z,60.88
2022-12-14T03:44:11.279Z,60.75
2022-12-14T03:47:06.153Z,61.00
2022-12-14T03:49:56.514Z,60.87
2022-12-14T03:52:40.067Z,60.92
2022-12-14T03:55:26.814Z,61.00
2022-12-14T03:58:16.988Z,60.99
2022-12-14T04:01:03.432Z,60.99
2022-12-14T04:03:48.565Z,61.04
2022-12-14T04:06:46.413Z,61.15
2022-12-14T04:09:38.555Z,61.46
2022-12-14T04:12:18.880Z,61.60
2022-12-14T04:15:20.282Z,61.47
2022-12-14T04:17:59.880Z,61.64
2022-12-14T04:20:59.477Z,61.46
2022-12-14T04:23:51.873Z,61.58
2022-12-14T04:26:28.848Z,61.38
2022-12-14T04:29:05.577Z,61.04
2022-12-14T04:31:41.250Z,61.23
2022-12-14T04:34:16.009Z,61.18
2022-12-14T04:36:58.247Z,61.08
2022-12-14T04:39:53.801Z,61.13
2022-12-14T04:42:33.781Z,61.00
2022-12-14T04:45:12.518Z,60.85
2022-12-14T04:47:59.428Z,60.79
2022-12-14T04:50:44.302Z,60.94
2022-12-14T04:53:40.121Z,60.71
2022-12-14T04:56:53.910Z,60.73
2022-12-14T04:59:26.176Z,60.80
2022-12-14T05:02:10.550Z,60.88
2022-12-14T05:05:35.233Z,60.93
2022-12-14T05:08:22.070Z,60.76
2022-12-14T05:11:48.004Z,61.10
2022-12-14T05:16:53.147Z,60.71
2022-12-14T05:19:27.527Z,60.73
2022-12-14T05:22:12.454Z,60.78
2022-12-14T05:27:36.494Z,60.70
2022-12-14T05:30:11.866Z,60.49
2022-12-14T05:32:44.768Z,60.52
2022-12-14T05:35:17.121Z,60.55
2022-12-14T05:37:51.329Z,60.66
2022-12-14T05:40:27.664Z,60.62
2022-12-14T05:43:07.529Z,60.57
2022-12-14T05:45:39.071Z,60.64
2022-12-14T05:48:19.344Z,60.59
2022-12-14T05:50:53.272Z,60.50
2022-12-14T05:53:25.562Z,60.67
2022-12-14T05:55:59.045Z,60.69
2022-12-14T05:58:30.490Z,60.69
2022-12-14T06:01:04.478Z,60.40
2022-12-14T06:03:35.992Z,60.30
2022-12-14T06:06:10.135Z,60.17
2022-12-14T06:08:44.633Z,60.15
2022-12-14T06:11:21.797Z,60.19
2022-12-14T06:13:53.269Z,60.13
2022-12-14T06:16:25.701Z,60.13
2022-12-14T06:19:00.093Z,60.20
2022-12-14T06:21:34.459Z,59.96
2022-12-14T06:24:06.662Z,60.07
2022-12-14T06:26:38.954Z,60.17
2022-12-14T06:29:16.667Z,60.09
2022-12-14T06:31:49.004Z,60.28
2022-12-14T06:34:26.349Z,60.25
2022-12-14T06:36:59.817Z,60.35
2022-12-14T06:39:31.350Z,60.66
2022-12-14T06:42:02.901Z,60.65
2022-12-14T06:44:34.698Z,60.71
2022-12-14T06:47:06.111Z,60.61
2022-12-14T06:49:37.551Z,60.46
2022-12-14T06:52:10.293Z,60.37
2022-12-14T06:54:41.731Z,60.32
2022-12-14T06:57:13.163Z,60.06
2022-12-14T06:59:44.592Z,59.80
2022-12-14T07:02:16.215Z,60.09
2022-12-14T07:04:47.814Z,59.99
2022-12-14T07:07:19.224Z,60.00
2022-12-14T07:09:50.694Z,59.92
2022-12-14T07:12:22.089Z,60.19
2022-12-14T07:14:54.393Z,60.29
2022-12-14T07:17:25.853Z,59.99
2022-12-14T07:19:57.265Z,59.95
2022-12-14T07:22:28.693Z,60.17
2022-12-14T07:25:00.143Z,60.22
2022-12-14T07:27:31.566Z,60.33
2022-12-14T07:30:03.171Z,60.51
2022-12-14T07:32:34.620Z,60.46
2022-12-14T07:35:07.851Z,60.42
2022-12-14T07:37:41.828Z,60.55
2022-12-14T07:40:13.331Z,60.57
2022-12-14T07:42:48.548Z,60.42
2022-12-14T07:45:19.920Z,60.28
2022-12-14T07:47:51.349Z,60.16
2022-12-14T07:50:22.906Z,60.23
2022-12-14T07:52:54.306Z,60.05
2022-12-14T07:55:25.753Z,59.80
2022-12-14T07:57:57.138Z,59.67
2022-12-14T08:00:28.588Z,59.60
2022-12-14T08:03:00.004Z,59.60
2022-12-14T08:05:31.432Z,59.68
2022-12-14T08:08:02.897Z,59.46
2022-12-14T08:10:40.025Z,59.89
2022-12-14T08:13:11.876Z,59.76
2022-12-14T08:15:43.325Z,59.80
2022-12-14T08:18:14.731Z,59.75
2022-12-14T08:20:53.382Z,59.77
2022-12-14T08:23:25.008Z,60.22
2022-12-14T08:25:58.116Z,60.55
2022-12-14T08:28:30.998Z,60.63
2022-12-14T08:31:07.793Z,60.81
2022-12-14T08:33:40.074Z,60.73
2022-12-14T08:36:19.202Z,60.46
2022-12-14T08:38:57.946Z,60.66
2022-12-14T08:41:29.882Z,60.65
2022-12-14T08:44:03.001Z,60.55
2022-12-14T08:46:35.513Z,60.59
2022-12-14T08:49:07.051Z,60.43
2022-12-14T08:51:38.488Z,60.25
2022-12-14T08:54:10.089Z,60.57
2022-12-14T08:56:41.539Z,60.92
2022-12-14T08:59:30.255Z,60.79
2022-12-14T09:02:04.832Z,60.63
2022-12-14T09:04:36.426Z,60.95
2022-12-14T09:07:07.819Z,60.89
2022-12-14T09:09:39.269Z,60.61
2022-12-14T09:12:10.698Z,60.61
2022-12-14T09:14:42.174Z,60.73
2022-12-14T09:17:13.601Z,60.65
2022-12-14T09:19:45.232Z,60.55
2022-12-14T09:22:16.642Z,60.37
2022-12-14T09:27:19.589Z,60.23
2022-12-14T09:29:51.132Z,60.17
2022-12-14T09:32:22.587Z,60.03
2022-12-14T09:34:54.005Z,60.25
2022-12-14T09:37:25.618Z,60.29
2022-12-14T09:39:57.007Z,60.20
2022-12-14T09:42:37.260Z,60.30
2022-12-14T09:45:29.765Z,60.18
2022-12-14T09:48:18.495Z,60.69
2022-12-14T09:50:52.679Z,60.69
2022-12-14T09:53:25.471Z,60.90
2022-12-14T09:55:58.450Z,60.29
2022-12-14T09:58:31.830Z,60.53
2022-12-14T10:01:03.599Z,61.14
2022-12-14T10:04:08.971Z,61.35
2022-12-14T10:06:58.596Z,60.88
2022-12-14T10:09:35.933Z,60.26
2022-12-14T10:12:34.342Z,60.41
2022-12-14T10:15:12.360Z,60.72
2022-12-14T10:17:59.070Z,60.75
2022-12-14T10:20:46.440Z,59.76
2022-12-14T10:23:23.163Z,59.83
2022-12-14T10:26:00.637Z,59.52
2022-12-14T10:28:45.077Z,58.53
2022-12-14T10:31:32.967Z,57.13
2022-12-14T10:34:31.894Z,58.06
2022-12-14T10:37:18.776Z,57.21
2022-12-14T10:40:10.823Z,57.54
2022-12-14T10:42:55.618Z,57.08
2022-12-14T10:46:00.023Z,56.30
2022-12-14T10:48:48.149Z,56.68
2022-12-14T10:51:40.422Z,56.53
2022-12-14T10:54:25.306Z,55.89
2022-12-14T10:56:56.841Z,55.13
2022-12-14T10:59:36.675Z,55.16
2022-12-14T11:02:15.198Z,54.72
2022-12-14T11:05:00.594Z,54.64
2022-12-14T11:07:31.934Z,54.19
2022-12-14T11:10:17.420Z,54.10
2022-12-14T11:13:05.847Z,54.23
2022-12-14T11:15:39.751Z,53.61
2022-12-14T11:18:17.359Z,54.00
2022-12-14T11:20:51.909Z,53.93
2022-12-14T11:23:29.458Z,54.37
2022-12-14T11:26:03.733Z,54.22
2022-12-14T11:28:50.686Z,54.38
2022-12-14T11:31:36.677Z,54.47
2022-12-14T11:34:22.347Z,53.78
2022-12-14T11:36:54.072Z,53.97
2022-12-14T11:39:25.924Z,54.13
2022-12-14T11:41:57.273Z,54.19
2022-12-14T11:44:36.483Z,53.99
2022-12-14T11:47:25.334Z,53.93
2022-12-14T11:49:57.156Z,54.32
2022-12-14T11:52:37.807Z,53.65
2022-12-14T11:55:15.215Z,53.82
2022-12-14T11:57:52.464Z,53.39
2022-12-14T12:00:27.284Z,53.05
2022-12-14T12:03:05.377Z,53.23
2022-12-14T12:05:41.598Z,53.30
2022-12-14T12:08:27.121Z,53.02
2022-12-14T12:11:02.377Z,53.29
2022-12-14T12:13:42.045Z,53.14
2022-12-14T12:16:16.944Z,52.96
2022-12-14T12:18:54.228Z,52.31
2022-12-14T12:21:35.827Z,52.45
2022-12-14T12:24:20.136Z,52.43
2022-12-14T12:27:07.774Z,52.05
2022-12-14T12:29:54.167Z,51.25
2022-12-14T12:32:42.641Z,51.02
2022-12-14T12:35:16.529Z,51.01
2022-12-14T12:37:57.038Z,50.75
2022-12-14T12:41:00.722Z,50.94
2022-12-14T12:43:39.072Z,50.82
2022-12-14T12:46:13.247Z,49.91
2022-12-14T12:48:53.546Z,50.22
2022-12-14T12:51:44.116Z,50.36
2022-12-14T12:54:53.509Z,50.19
2022-12-14T12:57:30.997Z,50.39
2022-12-14T13:00:02.673Z,49.99
2022-12-14T13:02:39.063Z,49.77
2022-12-14T13:05:44.638Z,49.53
2022-12-14T13:08:14.052Z,49.46
2022-12-14T13:11:17.217Z,49.34
2022-12-14T13:13:45.381Z,48.93
2022-12-14T13:16:26.287Z,48.59
2022-12-14T13:19:40.987Z,49.63
2022-12-14T13:22:06.348Z,49.91
2022-12-14T13:24:38.856Z,50.45
2022-12-14T13:27:31.691Z,51.12
2022-12-14T13:30:38.567Z,51.23
2022-12-14T13:33:15.868Z,51.77
2022-12-14T13:35:56.421Z,51.69
2022-12-14T13:39:05.669Z,51.66
2022-12-14T13:41:42.976Z,50.36
2022-12-14T13:44:44.765Z,49.83
2022-12-14T13:47:20.792Z,50.83
2022-12-14T13:50:26.848Z,51.38
2022-12-14T13:52:48.980Z,51.02
2022-12-14T13:55:29.794Z,50.53
2022-12-14T13:58:22.269Z,49.71
2022-12-14T14:00:59.824Z,50.34
2022-12-14T14:03:34.097Z,50.18
2022-12-14T14:06:15.051Z,49.89
2022-12-14T14:08:49.555Z,50.74
2022-12-14T14:11:43.604Z,50.59
2022-12-14T14:14:26.098Z,50.05
2022-12-14T14:17:03.413Z,49.98
2022-12-14T14:19:41.479Z,50.87
2022-12-14T14:22:23.678Z,51.67
2022-12-14T14:25:09.319Z,51.63
2022-12-14T14:27:50.311Z,51.17
2022-12-14T14:30:28.584Z,50.18
2022-12-14T14:33:35.898Z,49.99
2022-12-14T14:35:52.141Z,50.04
2022-12-14T14:38:46.312Z,50.50
2022-12-14T14:41:30.121Z,51.22
2022-12-14T14:44:07.689Z,49.84
2022-12-14T14:46:46.247Z,50.62
2022-12-14T14:49:40.346Z,50.03
2022-12-14T14:52:44.978Z,50.17
2022-12-14T14:58:33.511Z,51.03
2022-12-14T15:01:26.158Z,51.72
2022-12-14T15:04:23.900Z,50.89
2022-12-14T15:07:02.248Z,51.12
2022-12-14T15:09:39.236Z,51.06
2022-12-14T15:12:30.772Z,51.37
2022-12-14T15:15:06.417Z,51.30
2022-12-14T15:17:37.850Z,51.35
2022-12-14T15:20:40.013Z,51.75
2022-12-14T15:23:14.388Z,51.80
2022-12-14T15:25:45.879Z,51.90
2022-12-14T15:28:22.749Z,52.10
2022-12-14T15:30:57.461Z,51.98
2022-12-14T15:33:33.245Z,52.06
2022-12-14T15:36:14.630Z,52.30
2022-12-14T15:38:54.803Z,52.17
2022-12-14T15:41:29.067Z,52.41
2022-12-14T15:44:00.675Z,52.75
2022-12-14T15:46:35.495Z,53.17
2022-12-14T15:49:07.901Z,53.20
2022-12-14T15:51:42.145Z,53.51
2022-12-14T15:54:21.181Z,53.55
2022-12-14T15:56:58.633Z,53.53
2022-12-14T15:59:34.861Z,53.90
2022-12-14T16:02:30.317Z,54.10
2022-12-14T16:05:03.654Z,54.48
2022-12-14T16:07:39.285Z,54.69
2022-12-14T16:10:26.503Z,54.84
2022-12-14T16:13:06.932Z,54.98
2022-12-14T16:15:38.449Z,54.82
2022-12-14T16:18:14.141Z,54.94
2022-12-14T16:20:54.574Z,55.38
2022-12-14T16:23:33.378Z,55.48
2022-12-14T16:26:14.206Z,55.95
2022-12-14T16:28:45.616Z,56.11
2022-12-14T16:31:22.537Z,56.14
2022-12-14T16:34:16.372Z,56.23
2022-12-14T16:37:08.012Z,56.23
2022-12-14T16:39:45.727Z,56.31
2022-12-14T16:42:31.167Z,56.36
2022-12-14T16:45:02.657Z,56.48
2022-12-14T16:47:34.057Z,56.48
2022-12-14T16:50:47.661Z,56.66
2022-12-14T16:53:17.594Z,56.77
2022-12-14T16:56:01.476Z,56.72
2022-12-14T16:58:34.940Z,56.74
2022-12-14T17:01:09.150Z,56.99
2022-12-14T17:03:40.757Z,57.00
2022-12-14T17:06:22.750Z,57.22
2022-12-14T17:08:54.138Z,57.40
2022-12-14T17:11:25.593Z,57.34
2022-12-14T17:13:57.145Z,57.68
2022-12-14T17:16:28.656Z,57.78
2022-12-14T17:19:00.190Z,57.90
2022-12-14T17:21:31.758Z,57.58
2022-12-14T17:24:03.308Z,57.49
2022-12-14T17:26:34.718Z,57.66
2022-12-14T17:29:11.812Z,57.99
2022-12-14T17:31:49.819Z,58.38
2022-12-14T17:34:23.635Z,58.42
2022-12-14T17:36:55.235Z,58.66
2022-12-14T17:39:26.664Z,58.57
2022-12-14T17:41:58.109Z,58.84
2022-12-14T17:44:29.713Z,59.00
2022-12-14T17:47:01.166Z,58.83
2022-12-14T17:49:32.656Z,59.09
2022-12-14T17:52:06.437Z,58.89
2022-12-14T17:54:37.840Z,58.90
2022-12-14T17:57:22.892Z,58.64
2022-12-14T17:59:54.306Z,58.67
2022-12-14T18:02:31.087Z,58.76
2022-12-14T18:05:02.927Z,58.76
2022-12-14T18:07:34.344Z,58.90
2022-12-14T18:10:06.120Z,58.87
2022-12-14T18:12:37.560Z,59.03
2022-12-14T18:15:29.474Z,58.87
2022-12-14T18:18:00.932Z,58.99
2022-12-14T18:20:32.421Z,58.87
2022-12-14T18:23:03.830Z,58.55
2022-12-14T18:25:43.284Z,58.68
2022-12-14T18:28:20.030Z,58.75
2022-12-14T18:30:56.432Z,58.65
2022-12-14T18:33:28.622Z,58.54
2022-12-14T18:36:00.965Z,58.57
2022-12-14T18:38:32.403Z,58.71
2022-12-14T18:41:04.964Z,58.85
2022-12-14T18:43:40.303Z,58.88
2022-12-14T18:46:15.385Z,58.65
2022-12-14T18:48:47.006Z,58.83
2022-12-14T18:51:21.811Z,58.90
2022-12-14T18:53:58.178Z,58.69
2022-12-14T18:56:29.617Z,58.73
2022-12-14T18:59:01.080Z,58.69
2022-12-14T19:01:32.604Z,58.90
2022-12-14T19:04:04.415Z,59.16
2022-12-14T19:06:44.861Z,59.11
2022-12-14T19:09:16.835Z,59.32
2022-12-14T19:11:48.386Z,59.15
2022-12-14T19:14:21.244Z,59.17
2022-12-14T19:16:53.678Z,59.23
2022-12-14T19:19:31.197Z,59.06
2022-12-14T19:22:09.008Z,59.23
2022-12-14T19:24:40.533Z,59.46
2022-12-14T19:27:12.127Z,59.75
2022-12-14T19:29:43.668Z,59.76
2022-12-14T19:32:15.109Z,59.62
2022-12-14T19:34:47.634Z,59.71
2022-12-14T19:37:20.417Z,59.99
2022-12-14T19:39:53.404Z,59.97
2022-12-14T19:42:25.205Z,59.97
2022-12-14T19:44:56.631Z,59.98
2022-12-14T19:47:28.082Z,59.93
2022-12-14T19:49:59.477Z,59.98
2022-12-14T19:52:30.932Z,60.13
2022-12-14T19:55:02.541Z,60.40
2022-12-14T19:57:33.957Z,59.85
2022-12-14T20:00:08.413Z,60.27
2022-12-14T20:02:40.059Z,60.24
2022-12-14T20:05:11.675Z,60.18
2022-12-14T20:07:44.009Z,60.31
2022-12-14T20:10:15.612Z,61.26
2022-12-14T20:12:47.022Z,61.63
2022-12-14T20:15:18.456Z,61.55
2022-12-14T20:17:49.880Z,61.44
2022-12-14T20:20:23.017Z,61.76
2022-12-14T20:22:54.663Z,61.58
2022-12-14T20:25:26.053Z,61.39
2022-12-14T20:27:57.464Z,61.21
2022-12-14T20:30:29.216Z,61.73
2022-12-14T20:33:00.788Z,62.76
2022-12-14T20:35:33.437Z,64.87
2022-12-14T20:38:04.913Z,66.02
2022-12-14T20:40:38.920Z,67.50
2022-12-14T20:43:11.004Z,67.56
2022-12-14T20:45:43.394Z,67.57
2022-12-14T20:48:14.829Z,67.78
2022-12-14T20:50:50.400Z,67.98
2022-12-14T20:53:22.581Z,68.61
2022-12-14T20:55:54.060Z,71.58
2022-12-14T20:58:25.500Z,70.09
2022-12-14T21:00:56.967Z,69.84
2022-12-14T21:03:29.020Z,69.68
2022-12-14T21:06:00.933Z,69.94
2022-12-14T21:08:32.392Z,69.63
2022-12-14T21:11:03.891Z,69.27
2022-12-14T21:13:35.318Z,68.76
2022-12-14T21:16:09.622Z,68.68
2022-12-14T21:18:41.115Z,68.30
2022-12-14T21:21:12.575Z,68.33
2022-12-14T21:23:44.013Z,67.93
2022-12-14T21:26:15.498Z,67.29
2022-12-14T21:28:46.884Z,66.71
2022-12-14T21:31:18.353Z,66.63
2022-12-14T21:33:50.175Z,66.29
2022-12-14T21:36:21.840Z,65.82
2022-12-14T21:38:54.384Z,65.63
2022-12-14T21:41:25.780Z,65.62
2022-12-14T21:43:59.593Z,66.23
2022-12-14T21:46:31.226Z,66.33
2022-12-14T21:49:03.240Z,66.49
2022-12-14T21:51:34.666Z,66.68
2022-12-14T21:54:06.444Z,66.10
2022-12-14T21:56:38.881Z,65.63
2022-12-14T21:59:10.501Z,65.84
2022-12-14T22:01:42.447Z,66.12
2022-12-14T22:04:14.199Z,66.39
2022-12-14T22:06:45.702Z,66.19
2022-12-14T22:09:18.492Z,67.00
2022-12-14T22:11:50.144Z,67.71
2022-12-14T22:14:24.597Z,69.63
2022-12-14T22:16:56.013Z,69.06
2022-12-14T22:19:27.722Z,69.22
2022-12-14T22:21:59.317Z,69.33
2022-12-14T22:24:30.795Z,69.56
2022-12-14T22:27:02.247Z,69.44
2022-12-14T22:29:33.675Z,69.79
2022-12-14T22:32:05.660Z,69.43
2022-12-14T22:34:37.140Z,69.08
2022-12-14T22:37:08.616Z,68.84
2022-12-14T22:39:40.035Z,68.47
2022-12-14T22:42:11.445Z,68.53
2022-12-14T22:44:42.923Z,68.63
2022-12-14T22:47:14.472Z,68.79
2022-12-14T22:49:45.894Z,68.44
2022-12-14T22:52:22.869Z,68.00
2022-12-14T22:54:56.051Z,68.34
2022-12-14T22:57:28.112Z,68.11
2022-12-14T23:00:04.907Z,67.69
2022-12-14T23:02:36.533Z,67.78
2022-12-14T23:05:08.792Z,67.78
2022-12-14T23:07:40.192Z,68.19
2022-12-14T23:10:12.049Z,68.27
2022-12-14T23:12:43.484Z,67.92
2022-12-14T23:15:15.034Z,68.09
2022-12-14T23:17:46.470Z,67.87
2022-12-14T23:20:17.945Z,67.94
2022-12-14T23:22:49.710Z,67.87
2022-12-14T23:25:21.743Z,68.14
2022-12-14T23:27:53.197Z,68.02
2022-12-14T23:30:24.638Z,68.61
2022-12-14T23:32:57.306Z,68.01
2022-12-14T23:35:28.749Z,67.74
2022-12-14T23:38:07.378Z,67.25
2022-12-14T23:40:39.060Z,67.00
2022-12-14T23:43:16.327Z,66.81
2022-12-14T23:45:47.799Z,66.79
2022-12-14T23:48:19.308Z,66.90
2022-12-14T23:50:50.795Z,67.33
2022-12-14T23:53:22.198Z,66.90
2022-12-14T23:55:54.176Z,66.96
2022-12-14T23:58:25.590Z,67.58
